sensor_id;sensor_type;location;lat;lon;timestamp;P1;durP1;ratioP1;P2;durP2;ratioP2
31676;SDS011;18385;51.572;6.578;2023-03-19T00:02:11;4.80;;;1.40;;
31676;SDS011;18385;51.572;6.578;2023-03-19T00:04:37;2.90;;;1.65;;
31676;SDS011;18385;51.572;6.578;2023-03-19T00:07:03;4.93;;;1.52;;
31676;SDS011;18385;51.572;6.578;2023-03-19T00:09:28;4.40;;;1.80;;
31676;SDS011;18385;51.572;6.578;2023-03-19T00:11:54;5.20;;;1.83;;
31676;SDS011;18385;51.572;6.578;2023-03-19T00:14:20;2.55;;;1.52;;
31676;SDS011;18385;51.572;6.578;2023-03-19T00:16:46;2.85;;;1.40;;
31676;SDS011;18385;51.572;6.578;2023-03-19T00:19:12;2.72;;;1.38;;
31676;SDS011;18385;51.572;6.578;2023-03-19T00:21:38;3.45;;;1.63;;
31676;SDS011;18385;51.572;6.578;2023-03-19T00:24:03;3.20;;;1.25;;
31676;SDS011;18385;51.572;6.578;2023-03-19T00:26:33;3.10;;;1.52;;
31676;SDS011;18385;51.572;6.578;2023-03-19T00:29:00;1.95;;;1.20;;
31676;SDS011;18385;51.572;6.578;2023-03-19T00:31:27;3.38;;;1.40;;
31676;SDS011;18385;51.572;6.578;2023-03-19T00:33:55;4.25;;;1.52;;
31676;SDS011;18385;51.572;6.578;2023-03-19T00:36:22;2.42;;;1.40;;
31676;SDS011;18385;51.572;6.578;2023-03-19T00:38:50;2.20;;;1.27;;
31676;SDS011;18385;51.572;6.578;2023-03-19T00:41:16;3.50;;;1.35;;
31676;SDS011;18385;51.572;6.578;2023-03-19T00:43:43;6.20;;;1.50;;
31676;SDS011;18385;51.572;6.578;2023-03-19T00:46:11;3.33;;;1.85;;
31676;SDS011;18385;51.572;6.578;2023-03-19T00:48:37;3.85;;;1.20;;
31676;SDS011;18385;51.572;6.578;2023-03-19T00:51:03;2.60;;;1.40;;
31676;SDS011;18385;51.572;6.578;2023-03-19T00:53:31;3.75;;;1.73;;
31676;SDS011;18385;51.572;6.578;2023-03-19T00:55:57;2.15;;;1.40;;
31676;SDS011;18385;51.572;6.578;2023-03-19T00:58:23;2.90;;;1.73;;
31676;SDS011;18385;51.572;6.578;2023-03-19T01:00:52;4.85;;;2.05;;
31676;SDS011;18385;51.572;6.578;2023-03-19T01:03:19;4.05;;;2.08;;
31676;SDS011;18385;51.572;6.578;2023-03-19T01:05:49;3.33;;;2.22;;
31676;SDS011;18385;51.572;6.578;2023-03-19T01:08:15;5.18;;;1.75;;
31676;SDS011;18385;51.572;6.578;2023-03-19T01:10:42;5.18;;;1.65;;
31676;SDS011;18385;51.572;6.578;2023-03-19T01:13:09;4.88;;;1.90;;
31676;SDS011;18385;51.572;6.578;2023-03-19T01:15:38;5.72;;;1.95;;
31676;SDS011;18385;51.572;6.578;2023-03-19T01:18:05;5.70;;;1.85;;
31676;SDS011;18385;51.572;6.578;2023-03-19T01:20:32;3.97;;;1.75;;
31676;SDS011;18385;51.572;6.578;2023-03-19T01:22:59;6.75;;;2.13;;
31676;SDS011;18385;51.572;6.578;2023-03-19T01:25:25;11.07;;;2.33;;
31676;SDS011;18385;51.572;6.578;2023-03-19T01:28:00;3.67;;;1.63;;
31676;SDS011;18385;51.572;6.578;2023-03-19T01:30:27;5.88;;;1.75;;
31676;SDS011;18385;51.572;6.578;2023-03-19T01:33:16;2.90;;;1.52;;
31676;SDS011;18385;51.572;6.578;2023-03-19T01:36:04;4.72;;;1.77;;
31676;SDS011;18385;51.572;6.578;2023-03-19T01:38:48;4.35;;;1.90;;
31676;SDS011;18385;51.572;6.578;2023-03-19T01:41:14;2.63;;;1.50;;
31676;SDS011;18385;51.572;6.578;2023-03-19T01:43:40;4.43;;;1.45;;
31676;SDS011;18385;51.572;6.578;2023-03-19T01:46:26;4.43;;;1.73;;
31676;SDS011;18385;51.572;6.578;2023-03-19T01:49:15;5.00;;;1.65;;
31676;SDS011;18385;51.572;6.578;2023-03-19T01:51:48;3.88;;;1.50;;
31676;SDS011;18385;51.572;6.578;2023-03-19T01:54:35;3.30;;;1.50;;
31676;SDS011;18385;51.572;6.578;2023-03-19T01:57:30;4.85;;;1.67;;
31676;SDS011;18385;51.572;6.578;2023-03-19T02:00:15;3.20;;;1.58;;
31676;SDS011;18385;51.572;6.578;2023-03-19T02:02:48;3.95;;;2.17;;
31676;SDS011;18385;51.572;6.578;2023-03-19T02:05:44;7.88;;;1.88;;
31676;SDS011;18385;51.572;6.578;2023-03-19T02:10:40;3.38;;;1.85;;
31676;SDS011;18385;51.572;6.578;2023-03-19T02:13:07;5.18;;;1.88;;
31676;SDS011;18385;51.572;6.578;2023-03-19T02:15:33;5.00;;;2.13;;
31676;SDS011;18385;51.572;6.578;2023-03-19T02:17:59;5.75;;;1.80;;
31676;SDS011;18385;51.572;6.578;2023-03-19T02:20:33;7.43;;;2.50;;
31676;SDS011;18385;51.572;6.578;2023-03-19T02:23:52;6.10;;;2.00;;
31676;SDS011;18385;51.572;6.578;2023-03-19T02:26:03;5.20;;;2.72;;
31676;SDS011;18385;51.572;6.578;2023-03-19T02:28:33;3.45;;;2.00;;
31676;SDS011;18385;51.572;6.578;2023-03-19T02:31:01;5.35;;;2.38;;
31676;SDS011;18385;51.572;6.578;2023-03-19T02:33:28;5.03;;;1.88;;
31676;SDS011;18385;51.572;6.578;2023-03-19T02:35:54;3.35;;;1.83;;
31676;SDS011;18385;51.572;6.578;2023-03-19T02:38:22;8.55;;;1.83;;
31676;SDS011;18385;51.572;6.578;2023-03-19T02:40:57;3.38;;;1.55;;
31676;SDS011;18385;51.572;6.578;2023-03-19T02:43:25;4.82;;;1.77;;
31676;SDS011;18385;51.572;6.578;2023-03-19T02:45:52;3.95;;;1.80;;
31676;SDS011;18385;51.572;6.578;2023-03-19T02:48:18;4.55;;;1.70;;
31676;SDS011;18385;51.572;6.578;2023-03-19T02:50:44;3.40;;;1.33;;
31676;SDS011;18385;51.572;6.578;2023-03-19T02:53:10;4.07;;;1.40;;
31676;SDS011;18385;51.572;6.578;2023-03-19T02:55:36;6.13;;;1.85;;
31676;SDS011;18385;51.572;6.578;2023-03-19T02:58:01;2.78;;;1.55;;
31676;SDS011;18385;51.572;6.578;2023-03-19T03:00:27;4.55;;;1.40;;
31676;SDS011;18385;51.572;6.578;2023-03-19T03:02:54;5.50;;;1.50;;
31676;SDS011;18385;51.572;6.578;2023-03-19T03:05:21;3.53;;;1.02;;
31676;SDS011;18385;51.572;6.578;2023-03-19T03:07:47;3.60;;;1.33;;
31676;SDS011;18385;51.572;6.578;2023-03-19T03:10:14;4.35;;;1.95;;
31676;SDS011;18385;51.572;6.578;2023-03-19T03:12:40;5.28;;;1.30;;
31676;SDS011;18385;51.572;6.578;2023-03-19T03:15:06;3.47;;;1.50;;
31676;SDS011;18385;51.572;6.578;2023-03-19T03:17:36;6.90;;;1.10;;
31676;SDS011;18385;51.572;6.578;2023-03-19T03:20:03;2.83;;;1.00;;
31676;SDS011;18385;51.572;6.578;2023-03-19T03:22:29;3.00;;;1.02;;
31676;SDS011;18385;51.572;6.578;2023-03-19T03:24:55;2.88;;;1.05;;
31676;SDS011;18385;51.572;6.578;2023-03-19T03:27:21;3.60;;;1.05;;
31676;SDS011;18385;51.572;6.578;2023-03-19T03:29:47;3.03;;;1.40;;
31676;SDS011;18385;51.572;6.578;2023-03-19T03:32:13;4.13;;;1.30;;
31676;SDS011;18385;51.572;6.578;2023-03-19T03:34:39;2.00;;;1.30;;
31676;SDS011;18385;51.572;6.578;2023-03-19T03:37:05;5.38;;;1.63;;
31676;SDS011;18385;51.572;6.578;2023-03-19T03:39:31;4.80;;;2.00;;
31676;SDS011;18385;51.572;6.578;2023-03-19T03:41:56;2.75;;;1.00;;
31676;SDS011;18385;51.572;6.578;2023-03-19T03:44:22;3.67;;;1.42;;
31676;SDS011;18385;51.572;6.578;2023-03-19T03:46:48;3.13;;;1.33;;
31676;SDS011;18385;51.572;6.578;2023-03-19T03:49:14;3.55;;;1.17;;
31676;SDS011;18385;51.572;6.578;2023-03-19T03:51:39;3.60;;;1.00;;
31676;SDS011;18385;51.572;6.578;2023-03-19T03:54:06;5.00;;;1.25;;
31676;SDS011;18385;51.572;6.578;2023-03-19T03:56:32;5.25;;;1.15;;
31676;SDS011;18385;51.572;6.578;2023-03-19T03:58:58;3.95;;;1.23;;
31676;SDS011;18385;51.572;6.578;2023-03-19T04:01:25;4.68;;;1.40;;
31676;SDS011;18385;51.572;6.578;2023-03-19T04:03:54;6.50;;;1.50;;
31676;SDS011;18385;51.572;6.578;2023-03-19T04:06:20;3.20;;;1.23;;
31676;SDS011;18385;51.572;6.578;2023-03-19T04:08:59;2.92;;;1.63;;
31676;SDS011;18385;51.572;6.578;2023-03-19T04:11:25;4.20;;;2.08;;
31676;SDS011;18385;51.572;6.578;2023-03-19T04:13:53;6.03;;;1.63;;
31676;SDS011;18385;51.572;6.578;2023-03-19T04:16:22;3.63;;;1.70;;
31676;SDS011;18385;51.572;6.578;2023-03-19T04:18:48;4.93;;;1.70;;
31676;SDS011;18385;51.572;6.578;2023-03-19T04:21:14;4.30;;;1.60;;
31676;SDS011;18385;51.572;6.578;2023-03-19T04:23:40;4.97;;;1.90;;
31676;SDS011;18385;51.572;6.578;2023-03-19T04:26:06;5.90;;;2.30;;
31676;SDS011;18385;51.572;6.578;2023-03-19T04:28:32;2.05;;;1.05;;
31676;SDS011;18385;51.572;6.578;2023-03-19T04:30:59;3.42;;;1.50;;
31676;SDS011;18385;51.572;6.578;2023-03-19T04:33:32;4.28;;;1.58;;
31676;SDS011;18385;51.572;6.578;2023-03-19T04:35:58;3.83;;;1.83;;
31676;SDS011;18385;51.572;6.578;2023-03-19T04:38:25;3.75;;;1.38;;
31676;SDS011;18385;51.572;6.578;2023-03-19T04:40:51;5.97;;;1.83;;
31676;SDS011;18385;51.572;6.578;2023-03-19T04:43:18;5.03;;;1.67;;
31676;SDS011;18385;51.572;6.578;2023-03-19T04:45:45;3.83;;;1.30;;
31676;SDS011;18385;51.572;6.578;2023-03-19T04:48:11;4.03;;;1.65;;
31676;SDS011;18385;51.572;6.578;2023-03-19T04:50:38;4.43;;;1.80;;
31676;SDS011;18385;51.572;6.578;2023-03-19T04:53:04;4.50;;;1.70;;
31676;SDS011;18385;51.572;6.578;2023-03-19T04:55:30;3.65;;;2.13;;
31676;SDS011;18385;51.572;6.578;2023-03-19T04:58:04;4.75;;;1.85;;
31676;SDS011;18385;51.572;6.578;2023-03-19T05:00:32;5.60;;;2.35;;
31676;SDS011;18385;51.572;6.578;2023-03-19T05:02:59;5.47;;;2.08;;
31676;SDS011;18385;51.572;6.578;2023-03-19T05:05:27;5.35;;;2.20;;
31676;SDS011;18385;51.572;6.578;2023-03-19T05:07:53;3.80;;;1.83;;
31676;SDS011;18385;51.572;6.578;2023-03-19T05:10:18;4.38;;;1.90;;
31676;SDS011;18385;51.572;6.578;2023-03-19T05:12:45;2.35;;;1.42;;
31676;SDS011;18385;51.572;6.578;2023-03-19T05:15:11;4.38;;;1.90;;
31676;SDS011;18385;51.572;6.578;2023-03-19T05:17:48;2.80;;;1.63;;
31676;SDS011;18385;51.572;6.578;2023-03-19T05:20:29;3.35;;;1.70;;
31676;SDS011;18385;51.572;6.578;2023-03-19T05:23:01;5.47;;;1.70;;
31676;SDS011;18385;51.572;6.578;2023-03-19T05:25:37;5.97;;;2.50;;
31676;SDS011;18385;51.572;6.578;2023-03-19T05:28:07;5.85;;;2.15;;
31676;SDS011;18385;51.572;6.578;2023-03-19T05:30:33;4.65;;;2.20;;
31676;SDS011;18385;51.572;6.578;2023-03-19T05:33:07;5.55;;;2.20;;
31676;SDS011;18385;51.572;6.578;2023-03-19T05:35:36;6.05;;;3.00;;
31676;SDS011;18385;51.572;6.578;2023-03-19T05:38:05;5.68;;;2.58;;
31676;SDS011;18385;51.572;6.578;2023-03-19T05:40:32;4.78;;;2.63;;
31676;SDS011;18385;51.572;6.578;2023-03-19T05:43:07;4.00;;;2.75;;
31676;SDS011;18385;51.572;6.578;2023-03-19T05:45:34;5.65;;;2.40;;
31676;SDS011;18385;51.572;6.578;2023-03-19T05:48:09;6.18;;;2.65;;
31676;SDS011;18385;51.572;6.578;2023-03-19T05:50:39;5.10;;;2.83;;
31676;SDS011;18385;51.572;6.578;2023-03-19T05:53:28;6.15;;;2.90;;
31676;SDS011;18385;51.572;6.578;2023-03-19T05:56:13;5.20;;;2.53;;
31676;SDS011;18385;51.572;6.578;2023-03-19T05:58:52;7.53;;;4.03;;
31676;SDS011;18385;51.572;6.578;2023-03-19T06:01:23;4.72;;;2.70;;
31676;SDS011;18385;51.572;6.578;2023-03-19T06:03:49;6.53;;;3.08;;
31676;SDS011;18385;51.572;6.578;2023-03-19T06:06:15;4.55;;;2.88;;
31676;SDS011;18385;51.572;6.578;2023-03-19T06:08:43;5.38;;;3.05;;
31676;SDS011;18385;51.572;6.578;2023-03-19T06:11:15;6.97;;;3.47;;
31676;SDS011;18385;51.572;6.578;2023-03-19T06:13:43;5.57;;;3.15;;
31676;SDS011;18385;51.572;6.578;2023-03-19T06:16:14;7.50;;;3.50;;
31676;SDS011;18385;51.572;6.578;2023-03-19T06:18:50;6.07;;;3.20;;
31676;SDS011;18385;51.572;6.578;2023-03-19T06:21:16;5.85;;;3.40;;
31676;SDS011;18385;51.572;6.578;2023-03-19T06:23:42;5.60;;;2.60;;
31676;SDS011;18385;51.572;6.578;2023-03-19T06:26:10;4.85;;;3.10;;
31676;SDS011;18385;51.572;6.578;2023-03-19T06:28:53;9.57;;;3.58;;
31676;SDS011;18385;51.572;6.578;2023-03-19T06:31:19;6.93;;;3.13;;
31676;SDS011;18385;51.572;6.578;2023-03-19T06:33:51;5.07;;;2.90;;
31676;SDS011;18385;51.572;6.578;2023-03-19T06:36:17;6.25;;;3.40;;
31676;SDS011;18385;51.572;6.578;2023-03-19T06:38:43;7.47;;;3.53;;
31676;SDS011;18385;51.572;6.578;2023-03-19T06:41:08;7.10;;;3.17;;
31676;SDS011;18385;51.572;6.578;2023-03-19T06:43:34;7.60;;;3.20;;
31676;SDS011;18385;51.572;6.578;2023-03-19T06:46:04;6.15;;;2.97;;
31676;SDS011;18385;51.572;6.578;2023-03-19T06:50:56;7.60;;;3.05;;
31676;SDS011;18385;51.572;6.578;2023-03-19T06:53:22;5.60;;;2.30;;
31676;SDS011;18385;51.572;6.578;2023-03-19T06:55:48;6.53;;;3.22;;
31676;SDS011;18385;51.572;6.578;2023-03-19T06:58:13;8.75;;;3.05;;
31676;SDS011;18385;51.572;6.578;2023-03-19T07:00:39;6.07;;;2.97;;
31676;SDS011;18385;51.572;6.578;2023-03-19T07:03:05;5.88;;;2.90;;
31676;SDS011;18385;51.572;6.578;2023-03-19T07:05:31;5.35;;;2.95;;
31676;SDS011;18385;51.572;6.578;2023-03-19T07:07:57;4.40;;;2.40;;
31676;SDS011;18385;51.572;6.578;2023-03-19T07:10:23;6.70;;;3.03;;
31676;SDS011;18385;51.572;6.578;2023-03-19T07:12:49;5.50;;;3.17;;
31676;SDS011;18385;51.572;6.578;2023-03-19T07:15:14;7.53;;;3.17;;
31676;SDS011;18385;51.572;6.578;2023-03-19T07:17:41;6.95;;;2.80;;
31676;SDS011;18385;51.572;6.578;2023-03-19T07:20:10;6.15;;;3.08;;
31676;SDS011;18385;51.572;6.578;2023-03-19T07:22:36;5.13;;;2.80;;
31676;SDS011;18385;51.572;6.578;2023-03-19T07:25:02;6.40;;;3.25;;
31676;SDS011;18385;51.572;6.578;2023-03-19T07:27:27;7.03;;;2.83;;
31676;SDS011;18385;51.572;6.578;2023-03-19T07:29:53;5.85;;;3.00;;
31676;SDS011;18385;51.572;6.578;2023-03-19T07:32:20;4.72;;;2.88;;
31676;SDS011;18385;51.572;6.578;2023-03-19T07:34:46;4.45;;;2.90;;
31676;SDS011;18385;51.572;6.578;2023-03-19T07:37:12;6.20;;;3.13;;
31676;SDS011;18385;51.572;6.578;2023-03-19T07:39:37;5.15;;;2.78;;
31676;SDS011;18385;51.572;6.578;2023-03-19T07:42:03;4.85;;;2.63;;
31676;SDS011;18385;51.572;6.578;2023-03-19T07:44:30;5.30;;;3.17;;
31676;SDS011;18385;51.572;6.578;2023-03-19T07:46:56;6.43;;;3.22;;
31676;SDS011;18385;51.572;6.578;2023-03-19T07:49:21;4.18;;;2.50;;
31676;SDS011;18385;51.572;6.578;2023-03-19T07:51:48;5.95;;;3.20;;
31676;SDS011;18385;51.572;6.578;2023-03-19T07:54:13;5.65;;;2.90;;
31676;SDS011;18385;51.572;6.578;2023-03-19T07:56:39;5.93;;;2.85;;
31676;SDS011;18385;51.572;6.578;2023-03-19T07:59:05;6.38;;;3.22;;
31676;SDS011;18385;51.572;6.578;2023-03-19T08:01:30;6.85;;;2.97;;
31676;SDS011;18385;51.572;6.578;2023-03-19T08:03:56;5.20;;;3.10;;
31676;SDS011;18385;51.572;6.578;2023-03-19T08:06:22;5.53;;;3.28;;
31676;SDS011;18385;51.572;6.578;2023-03-19T08:08:48;5.68;;;2.80;;
31676;SDS011;18385;51.572;6.578;2023-03-19T08:11:14;4.95;;;2.35;;
31676;SDS011;18385;51.572;6.578;2023-03-19T08:13:39;6.35;;;2.90;;
31676;SDS011;18385;51.572;6.578;2023-03-19T08:16:06;6.30;;;2.67;;
31676;SDS011;18385;51.572;6.578;2023-03-19T08:18:34;5.63;;;2.55;;
31676;SDS011;18385;51.572;6.578;2023-03-19T08:21:00;4.50;;;2.88;;
31676;SDS011;18385;51.572;6.578;2023-03-19T08:23:26;4.57;;;2.78;;
31676;SDS011;18385;51.572;6.578;2023-03-19T08:25:52;3.85;;;2.67;;
31676;SDS011;18385;51.572;6.578;2023-03-19T08:28:19;5.38;;;3.00;;
31676;SDS011;18385;51.572;6.578;2023-03-19T08:30:45;4.82;;;3.03;;
31676;SDS011;18385;51.572;6.578;2023-03-19T08:33:11;7.43;;;3.50;;
31676;SDS011;18385;51.572;6.578;2023-03-19T08:35:37;3.47;;;2.38;;
31676;SDS011;18385;51.572;6.578;2023-03-19T08:38:03;8.05;;;2.95;;
31676;SDS011;18385;51.572;6.578;2023-03-19T08:40:28;5.03;;;3.40;;
31676;SDS011;18385;51.572;6.578;2023-03-19T08:42:54;4.63;;;2.88;;
31676;SDS011;18385;51.572;6.578;2023-03-19T08:45:20;4.88;;;2.90;;
31676;SDS011;18385;51.572;6.578;2023-03-19T08:47:46;6.72;;;3.10;;
31676;SDS011;18385;51.572;6.578;2023-03-19T08:50:12;6.22;;;3.05;;
31676;SDS011;18385;51.572;6.578;2023-03-19T08:52:38;5.22;;;3.08;;
31676;SDS011;18385;51.572;6.578;2023-03-19T08:55:03;5.32;;;3.67;;
31676;SDS011;18385;51.572;6.578;2023-03-19T08:57:30;6.15;;;3.53;;
31676;SDS011;18385;51.572;6.578;2023-03-19T08:59:56;5.40;;;3.13;;
31676;SDS011;18385;51.572;6.578;2023-03-19T09:02:22;5.53;;;3.00;;
31676;SDS011;18385;51.572;6.578;2023-03-19T09:04:48;4.70;;;3.25;;
31676;SDS011;18385;51.572;6.578;2023-03-19T09:07:13;5.18;;;3.20;;
31676;SDS011;18385;51.572;6.578;2023-03-19T09:09:42;5.40;;;3.70;;
31676;SDS011;18385;51.572;6.578;2023-03-19T09:12:08;5.38;;;3.17;;
31676;SDS011;18385;51.572;6.578;2023-03-19T09:14:36;5.85;;;3.28;;
31676;SDS011;18385;51.572;6.578;2023-03-19T09:17:02;4.07;;;2.70;;
31676;SDS011;18385;51.572;6.578;2023-03-19T09:19:29;4.80;;;2.80;;
31676;SDS011;18385;51.572;6.578;2023-03-19T09:21:54;5.15;;;3.22;;
31676;SDS011;18385;51.572;6.578;2023-03-19T09:24:20;4.70;;;3.00;;
31676;SDS011;18385;51.572;6.578;2023-03-19T09:26:46;4.40;;;2.95;;
31676;SDS011;18385;51.572;6.578;2023-03-19T09:29:13;7.60;;;3.10;;
31676;SDS011;18385;51.572;6.578;2023-03-19T09:31:40;4.63;;;2.85;;
31676;SDS011;18385;51.572;6.578;2023-03-19T09:34:06;5.03;;;3.45;;
31676;SDS011;18385;51.572;6.578;2023-03-19T09:36:33;7.72;;;3.70;;
31676;SDS011;18385;51.572;6.578;2023-03-19T09:39:00;4.95;;;3.30;;
31676;SDS011;18385;51.572;6.578;2023-03-19T09:44:09;5.53;;;3.33;;
31676;SDS011;18385;51.572;6.578;2023-03-19T09:49:23;5.07;;;3.28;;
31676;SDS011;18385;51.572;6.578;2023-03-19T09:51:54;4.68;;;2.90;;
31676;SDS011;18385;51.572;6.578;2023-03-19T09:54:28;5.28;;;3.75;;
31676;SDS011;18385;51.572;6.578;2023-03-19T09:56:57;7.55;;;4.05;;
31676;SDS011;18385;51.572;6.578;2023-03-19T09:59:24;5.35;;;3.10;;
31676;SDS011;18385;51.572;6.578;2023-03-19T10:01:53;5.05;;;3.50;;
31676;SDS011;18385;51.572;6.578;2023-03-19T10:10:01;4.78;;;3.30;;
31676;SDS011;18385;51.572;6.578;2023-03-19T10:15:28;5.22;;;3.22;;
31676;SDS011;18385;51.572;6.578;2023-03-19T10:17:57;5.85;;;3.20;;
31676;SDS011;18385;51.572;6.578;2023-03-19T10:20:40;4.47;;;2.75;;
31676;SDS011;18385;51.572;6.578;2023-03-19T10:26:02;5.10;;;2.67;;
31676;SDS011;18385;51.572;6.578;2023-03-19T10:28:30;4.40;;;2.63;;
31676;SDS011;18385;51.572;6.578;2023-03-19T10:31:13;3.90;;;2.55;;
31676;SDS011;18385;51.572;6.578;2023-03-19T10:36:33;3.53;;;2.20;;
31676;SDS011;18385;51.572;6.578;2023-03-19T10:39:00;4.13;;;2.20;;
31676;SDS011;18385;51.572;6.578;2023-03-19T10:44:12;3.03;;;1.70;;
31676;SDS011;18385;51.572;6.578;2023-03-19T10:46:52;2.45;;;1.40;;
31676;SDS011;18385;51.572;6.578;2023-03-19T10:49:34;5.32;;;2.42;;
31676;SDS011;18385;51.572;6.578;2023-03-19T10:52:00;5.63;;;2.42;;
31676;SDS011;18385;51.572;6.578;2023-03-19T10:54:26;5.00;;;2.75;;
31676;SDS011;18385;51.572;6.578;2023-03-19T10:56:56;3.60;;;2.45;;
31676;SDS011;18385;51.572;6.578;2023-03-19T11:02:00;4.20;;;1.88;;
31676;SDS011;18385;51.572;6.578;2023-03-19T11:04:38;3.22;;;1.92;;
31676;SDS011;18385;51.572;6.578;2023-03-19T11:07:11;5.43;;;2.30;;
31676;SDS011;18385;51.572;6.578;2023-03-19T11:09:39;2.67;;;1.60;;
31676;SDS011;18385;51.572;6.578;2023-03-19T11:14:43;2.72;;;1.38;;
31676;SDS011;18385;51.572;6.578;2023-03-19T11:22:53;3.17;;;1.52;;
31676;SDS011;18385;51.572;6.578;2023-03-19T11:25:37;2.03;;;1.30;;
31676;SDS011;18385;51.572;6.578;2023-03-19T11:28:11;2.58;;;1.17;;
31676;SDS011;18385;51.572;6.578;2023-03-19T11:36:16;5.78;;;2.50;;
31676;SDS011;18385;51.572;6.578;2023-03-19T11:38:55;2.90;;;1.30;;
31676;SDS011;18385;51.572;6.578;2023-03-19T11:47:20;4.45;;;0.98;;
31676;SDS011;18385;51.572;6.578;2023-03-19T11:49:59;1.42;;;0.85;;
31676;SDS011;18385;51.572;6.578;2023-03-19T11:55:39;1.80;;;0.82;;
31676;SDS011;18385;51.572;6.578;2023-03-19T12:01:22;2.22;;;1.27;;
31676;SDS011;18385;51.572;6.578;2023-03-19T12:12:20;1.58;;;0.90;;
31676;SDS011;18385;51.572;6.578;2023-03-19T12:15:02;2.25;;;0.82;;
31676;SDS011;18385;51.572;6.578;2023-03-19T12:21:11;2.63;;;0.80;;
31676;SDS011;18385;51.572;6.578;2023-03-19T12:29:20;1.48;;;0.80;;
31676;SDS011;18385;51.572;6.578;2023-03-19T12:39:47;3.05;;;1.20;;
31676;SDS011;18385;51.572;6.578;2023-03-19T12:42:22;1.80;;;0.95;;
31676;SDS011;18385;51.572;6.578;2023-03-19T12:44:54;1.92;;;1.17;;
31676;SDS011;18385;51.572;6.578;2023-03-19T12:47:27;3.97;;;1.20;;
31676;SDS011;18385;51.572;6.578;2023-03-19T12:50:04;2.33;;;1.23;;
31676;SDS011;18385;51.572;6.578;2023-03-19T12:52:40;3.55;;;0.70;;
31676;SDS011;18385;51.572;6.578;2023-03-19T12:57:38;3.00;;;0.90;;
31676;SDS011;18385;51.572;6.578;2023-03-19T13:06:03;2.38;;;0.80;;
31676;SDS011;18385;51.572;6.578;2023-03-19T13:20:15;2.45;;;0.40;;
31676;SDS011;18385;51.572;6.578;2023-03-19T13:22:43;1.55;;;0.50;;
31676;SDS011;18385;51.572;6.578;2023-03-19T13:25:22;2.67;;;0.43;;
31676;SDS011;18385;51.572;6.578;2023-03-19T13:27:55;2.63;;;0.52;;
31676;SDS011;18385;51.572;6.578;2023-03-19T13:30:21;1.75;;;0.45;;
31676;SDS011;18385;51.572;6.578;2023-03-19T13:32:49;3.65;;;0.50;;
31676;SDS011;18385;51.572;6.578;2023-03-19T13:35:29;1.38;;;0.55;;
31676;SDS011;18385;51.572;6.578;2023-03-19T13:43:58;1.88;;;0.30;;
31676;SDS011;18385;51.572;6.578;2023-03-19T13:46:42;2.10;;;0.40;;
31676;SDS011;18385;51.572;6.578;2023-03-19T13:49:25;1.75;;;0.65;;
31676;SDS011;18385;51.572;6.578;2023-03-19T13:51:59;2.83;;;0.95;;
31676;SDS011;18385;51.572;6.578;2023-03-19T13:54:38;2.97;;;0.88;;
31676;SDS011;18385;51.572;6.578;2023-03-19T13:57:15;4.20;;;1.10;;
31676;SDS011;18385;51.572;6.578;2023-03-19T13:59:46;3.55;;;0.88;;
31676;SDS011;18385;51.572;6.578;2023-03-19T14:04:40;2.90;;;1.10;;
31676;SDS011;18385;51.572;6.578;2023-03-19T14:07:28;3.75;;;0.70;;
31676;SDS011;18385;51.572;6.578;2023-03-19T14:12:32;2.55;;;0.80;;
31676;SDS011;18385;51.572;6.578;2023-03-19T14:17:40;2.47;;;1.35;;
31676;SDS011;18385;51.572;6.578;2023-03-19T14:25:51;2.40;;;0.60;;
31676;SDS011;18385;51.572;6.578;2023-03-19T14:28:33;1.73;;;0.68;;
31676;SDS011;18385;51.572;6.578;2023-03-19T14:31:01;2.47;;;0.63;;
31676;SDS011;18385;51.572;6.578;2023-03-19T14:33:34;2.45;;;0.70;;
31676;SDS011;18385;51.572;6.578;2023-03-19T14:36:11;6.03;;;0.90;;
31676;SDS011;18385;51.572;6.578;2023-03-19T14:38:43;3.00;;;1.08;;
31676;SDS011;18385;51.572;6.578;2023-03-19T14:41:16;2.35;;;0.93;;
31676;SDS011;18385;51.572;6.578;2023-03-19T14:54:52;2.67;;;1.13;;
31676;SDS011;18385;51.572;6.578;2023-03-19T14:57:25;3.55;;;1.08;;
31676;SDS011;18385;51.572;6.578;2023-03-19T14:59:53;2.92;;;0.73;;
31676;SDS011;18385;51.572;6.578;2023-03-19T15:07:41;3.20;;;1.05;;
31676;SDS011;18385;51.572;6.578;2023-03-19T15:10:16;4.82;;;1.33;;
31676;SDS011;18385;51.572;6.578;2023-03-19T15:16:01;1.85;;;0.98;;
31676;SDS011;18385;51.572;6.578;2023-03-19T15:18:31;2.65;;;1.15;;
31676;SDS011;18385;51.572;6.578;2023-03-19T15:20:57;2.45;;;0.98;;
31676;SDS011;18385;51.572;6.578;2023-03-19T15:23:24;1.73;;;0.70;;
31676;SDS011;18385;51.572;6.578;2023-03-19T15:25:58;2.25;;;0.90;;
31676;SDS011;18385;51.572;6.578;2023-03-19T15:28:33;4.78;;;1.30;;
31676;SDS011;18385;51.572;6.578;2023-03-19T15:31:15;3.88;;;0.70;;
31676;SDS011;18385;51.572;6.578;2023-03-19T15:33:42;5.13;;;1.33;;
31676;SDS011;18385;51.572;6.578;2023-03-19T15:38:53;3.13;;;0.90;;
31676;SDS011;18385;51.572;6.578;2023-03-19T15:41:27;4.07;;;0.80;;
31676;SDS011;18385;51.572;6.578;2023-03-19T15:43:55;3.97;;;0.70;;
31676;SDS011;18385;51.572;6.578;2023-03-19T15:46:22;3.85;;;0.70;;
31676;SDS011;18385;51.572;6.578;2023-03-19T15:51:19;4.03;;;0.88;;
31676;SDS011;18385;51.572;6.578;2023-03-19T15:53:46;3.58;;;0.60;;
31676;SDS011;18385;51.572;6.578;2023-03-19T15:56:13;1.77;;;0.77;;
31676;SDS011;18385;51.572;6.578;2023-03-19T15:58:43;6.05;;;1.23;;
31676;SDS011;18385;51.572;6.578;2023-03-19T16:01:11;3.05;;;0.80;;
31676;SDS011;18385;51.572;6.578;2023-03-19T16:03:40;2.90;;;0.55;;
31676;SDS011;18385;51.572;6.578;2023-03-19T16:06:16;2.72;;;1.08;;
31676;SDS011;18385;51.572;6.578;2023-03-19T16:08:47;5.47;;;1.05;;
31676;SDS011;18385;51.572;6.578;2023-03-19T16:17:08;4.50;;;0.88;;
31676;SDS011;18385;51.572;6.578;2023-03-19T16:19:37;6.53;;;1.40;;
31676;SDS011;18385;51.572;6.578;2023-03-19T16:22:18;11.20;;;1.30;;
31676;SDS011;18385;51.572;6.578;2023-03-19T16:24:46;6.85;;;1.77;;
31676;SDS011;18385;51.572;6.578;2023-03-19T16:27:15;6.63;;;1.60;;
31676;SDS011;18385;51.572;6.578;2023-03-19T16:29:44;6.70;;;1.20;;
31676;SDS011;18385;51.572;6.578;2023-03-19T16:32:34;4.07;;;1.55;;
31676;SDS011;18385;51.572;6.578;2023-03-19T16:35:12;8.18;;;2.03;;
31676;SDS011;18385;51.572;6.578;2023-03-19T16:37:43;4.65;;;1.23;;
31676;SDS011;18385;51.572;6.578;2023-03-19T16:42:43;5.70;;;1.88;;
31676;SDS011;18385;51.572;6.578;2023-03-19T16:47:56;3.70;;;1.40;;
31676;SDS011;18385;51.572;6.578;2023-03-19T16:50:27;5.63;;;1.65;;
31676;SDS011;18385;51.572;6.578;2023-03-19T16:52:57;5.20;;;1.88;;
31676;SDS011;18385;51.572;6.578;2023-03-19T16:55:26;4.82;;;1.38;;
31676;SDS011;18385;51.572;6.578;2023-03-19T17:00:24;5.35;;;1.40;;
31676;SDS011;18385;51.572;6.578;2023-03-19T17:02:51;7.40;;;1.85;;
31676;SDS011;18385;51.572;6.578;2023-03-19T17:05:20;9.23;;;1.40;;
31676;SDS011;18385;51.572;6.578;2023-03-19T17:07:46;5.95;;;1.38;;
31676;SDS011;18385;51.572;6.578;2023-03-19T17:12:40;3.67;;;1.17;;
31676;SDS011;18385;51.572;6.578;2023-03-19T17:15:12;6.10;;;1.25;;
31676;SDS011;18385;51.572;6.578;2023-03-19T17:17:49;8.45;;;3.00;;
31676;SDS011;18385;51.572;6.578;2023-03-19T17:20:19;10.77;;;3.10;;
31676;SDS011;18385;51.572;6.578;2023-03-19T17:22:51;8.68;;;3.85;;
31676;SDS011;18385;51.572;6.578;2023-03-19T17:25:16;14.20;;;5.60;;
31676;SDS011;18385;51.572;6.578;2023-03-19T17:27:43;12.93;;;4.60;;
31676;SDS011;18385;51.572;6.578;2023-03-19T17:30:10;11.00;;;4.65;;
31676;SDS011;18385;51.572;6.578;2023-03-19T17:32:37;10.27;;;5.13;;
31676;SDS011;18385;51.572;6.578;2023-03-19T17:35:11;12.52;;;5.22;;
31676;SDS011;18385;51.572;6.578;2023-03-19T17:37:39;12.95;;;5.90;;
31676;SDS011;18385;51.572;6.578;2023-03-19T17:40:24;10.52;;;5.20;;
31676;SDS011;18385;51.572;6.578;2023-03-19T17:42:51;23.17;;;7.75;;
31676;SDS011;18385;51.572;6.578;2023-03-19T17:45:19;10.30;;;5.38;;